createdAt,value
2022-12-28T00:00:07.023Z,7.4
2022-12-28T00:02:33.877Z,7.4
2022-12-28T00:05:00.707Z,7.4
2022-12-28T00:07:27.552Z,7.4
2022-12-28T00:09:54.392Z,7.4
2022-12-28T00:12:21.237Z,7.4
2022-12-28T00:14:46.658Z,7.4
2022-12-28T00:17:13.492Z,7.4
2022-12-28T00:19:40.328Z,7.4
2022-12-28T00:22:07.169Z,7.4
2022-12-28T00:24:34.022Z,7.4
2022-12-28T00:27:00.869Z,7.4
2022-12-28T00:29:27.703Z,7.4
2022-12-28T00:31:54.556Z,7.4
2022-12-28T00:34:21.389Z,7.4
2022-12-28T00:36:48.228Z,7.4
2022-12-28T00:39:15.105Z,7.4
2022-12-28T00:41:41.903Z,7.3
2022-12-28T00:44:08.742Z,7.3
2022-12-28T00:46:34.171Z,7.3
2022-12-28T00:49:01.004Z,7.3
2022-12-28T00:51:27.842Z,7.3
2022-12-28T00:53:54.677Z,7.3
2022-12-28T00:56:21.532Z,7.3
2022-12-28T00:58:48.361Z,7.3
2022-12-28T01:01:15.216Z,7.3
2022-12-28T01:03:42.046Z,7.2
2022-12-28T01:06:08.885Z,7.3
2022-12-28T01:08:35.739Z,7.2
2022-12-28T01:13:29.414Z,7.3
2022-12-28T01:18:23.094Z,7.2
2022-12-28T01:20:48.503Z,7.2
2022-12-28T01:23:15.345Z,7.2
2022-12-28T01:25:42.198Z,7.2
2022-12-28T01:28:09.034Z,7.2
2022-12-28T01:30:35.876Z,7.2
2022-12-28T01:33:02.712Z,7.2
2022-12-28T01:35:29.560Z,7.2
2022-12-28T01:40:23.235Z,7.2
2022-12-28T01:42:48.690Z,7.2
2022-12-28T01:45:15.553Z,7.2
2022-12-28T01:47:42.341Z,7.2
2022-12-28T01:50:07.755Z,7.2
2022-12-28T01:52:34.614Z,7.2
2022-12-28T01:55:01.445Z,7.2
2022-12-28T01:57:28.276Z,7.2
2022-12-28T02:02:21.969Z,7.2
2022-12-28T02:04:48.792Z,7.2
2022-12-28T02:07:15.648Z,7.1
2022-12-28T02:12:09.312Z,7.1
2022-12-28T02:14:34.834Z,7.1
2022-12-28T02:17:00.202Z,7.1
2022-12-28T02:19:27.040Z,7.1
2022-12-28T02:21:53.893Z,7.1
2022-12-28T02:26:47.593Z,7.1
2022-12-28T02:29:14.406Z,7.1
2022-12-28T02:31:41.250Z,7.1
2022-12-28T02:34:08.093Z,7.1
2022-12-28T02:36:34.932Z,7.1
2022-12-28T02:39:01.773Z,7.1
2022-12-28T02:41:28.605Z,7.1
2022-12-28T02:43:55.452Z,7.1
2022-12-28T02:46:22.326Z,7.1
2022-12-28T02:48:47.709Z,7.1
2022-12-28T02:51:14.549Z,7.1
2022-12-28T02:56:08.224Z,7.1
2022-12-28T02:58:35.055Z,7.1
2022-12-28T03:01:01.925Z,7.1
2022-12-28T03:03:28.760Z,7.1
2022-12-28T03:08:22.451Z,7.1
2022-12-28T03:10:49.286Z,7.1
2022-12-28T03:13:16.115Z,7.1
2022-12-28T03:15:42.960Z,7
2022-12-28T03:18:09.793Z,7
2022-12-28T03:20:35.222Z,7.1
2022-12-28T03:23:02.083Z,7
2022-12-28T03:25:28.883Z,7
2022-12-28T03:30:22.583Z,7
2022-12-28T03:32:49.420Z,7
2022-12-28T03:35:16.251Z,7
2022-12-28T03:40:09.944Z,7
2022-12-28T03:42:36.785Z,7
2022-12-28T03:45:03.621Z,7
2022-12-28T03:47:30.475Z,7
2022-12-28T03:49:57.323Z,7
2022-12-28T03:52:22.727Z,7
2022-12-28T03:54:49.566Z,7
2022-12-28T03:57:16.411Z,6.9
2022-12-28T03:59:42.826Z,7
2022-12-28T04:02:09.675Z,7
2022-12-28T04:04:36.521Z,6.9
2022-12-28T04:07:03.348Z,6.9
2022-12-28T04:09:30.187Z,6.9
2022-12-28T04:11:57.035Z,6.9
2022-12-28T04:14:23.873Z,6.9
2022-12-28T04:16:50.714Z,6.9
2022-12-28T04:19:17.559Z,6.9
2022-12-28T04:21:44.408Z,6.9
2022-12-28T04:24:09.862Z,6.9
2022-12-28T04:26:35.286Z,6.9
2022-12-28T04:29:02.128Z,6.9
2022-12-28T04:31:28.961Z,6.9
2022-12-28T04:33:55.805Z,6.9
2022-12-28T04:36:22.646Z,6.9
2022-12-28T04:38:49.495Z,6.9
2022-12-28T04:41:16.333Z,6.9
2022-12-28T04:43:43.253Z,6.9
2022-12-28T04:46:10.007Z,6.9
2022-12-28T04:48:36.851Z,6.9
2022-12-28T04:51:02.303Z,6.9
2022-12-28T04:53:27.729Z,6.9
2022-12-28T04:55:54.612Z,6.9
2022-12-28T04:58:21.409Z,6.9
2022-12-28T05:00:48.285Z,6.9
2022-12-28T05:03:15.086Z,6.9
2022-12-28T05:05:41.927Z,6.9
2022-12-28T05:08:08.758Z,6.9
2022-12-28T05:10:35.617Z,6.9
2022-12-28T05:13:02.458Z,6.9
2022-12-28T05:15:29.298Z,6.9
2022-12-28T05:17:56.130Z,6.9
2022-12-28T05:20:22.975Z,6.9
2022-12-28T05:22:49.815Z,6.9
2022-12-28T05:25:16.650Z,6.9
2022-12-28T05:27:42.087Z,6.9
2022-12-28T05:30:07.517Z,6.8
2022-12-28T05:32:34.357Z,6.9
2022-12-28T05:35:01.190Z,6.9
2022-12-28T05:37:28.040Z,6.8
2022-12-28T05:39:54.965Z,6.8
2022-12-28T05:42:21.718Z,6.9
2022-12-28T05:44:48.569Z,6.8
2022-12-28T05:47:15.389Z,6.8
2022-12-28T05:49:42.242Z,6.8
2022-12-28T05:52:09.107Z,6.8
2022-12-28T05:54:35.936Z,6.8
2022-12-28T05:57:02.759Z,6.8
2022-12-28T05:59:29.597Z,6.8
2022-12-28T06:01:56.461Z,6.8
2022-12-28T06:04:21.867Z,6.8
2022-12-28T06:06:48.729Z,6.8
2022-12-28T06:09:15.548Z,6.8
2022-12-28T06:11:42.389Z,6.8
2022-12-28T06:14:09.242Z,6.8
2022-12-28T06:16:36.071Z,6.8
2022-12-28T06:19:02.907Z,6.8
2022-12-28T06:21:29.756Z,6.8
2022-12-28T06:23:56.598Z,6.7
2022-12-28T06:26:23.439Z,6.8
2022-12-28T06:28:50.259Z,6.8
2022-12-28T06:31:17.133Z,6.8
2022-12-28T06:33:43.960Z,6.7
2022-12-28T06:36:09.359Z,6.7
2022-12-28T06:38:36.233Z,6.7
2022-12-28T06:41:03.495Z,6.7
2022-12-28T06:43:29.890Z,6.7
2022-12-28T06:45:56.731Z,6.7
2022-12-28T06:48:23.577Z,6.7
2022-12-28T06:50:50.406Z,6.7
2022-12-28T06:55:44.122Z,6.7
2022-12-28T06:58:10.941Z,6.7
2022-12-28T07:00:37.786Z,6.7
2022-12-28T07:03:04.634Z,6.7
2022-12-28T07:05:31.460Z,6.7
2022-12-28T07:10:25.149Z,6.7
2022-12-28T07:12:50.573Z,6.7
2022-12-28T07:15:17.431Z,6.7
2022-12-28T07:17:44.265Z,6.7
2022-12-28T07:20:11.085Z,6.7
2022-12-28T07:22:37.933Z,6.7
2022-12-28T07:25:04.763Z,6.7
2022-12-28T07:27:31.613Z,6.7
2022-12-28T07:29:58.461Z,6.7
2022-12-28T07:32:25.363Z,6.7
2022-12-28T07:34:52.121Z,6.7
2022-12-28T07:37:18.964Z,6.7
2022-12-28T07:39:45.821Z,6.7
2022-12-28T07:42:12.689Z,6.7
2022-12-28T07:44:39.534Z,6.7
2022-12-28T07:47:04.905Z,6.7
2022-12-28T07:49:34.309Z,6.7
2022-12-28T07:51:58.620Z,6.7
2022-12-28T07:54:25.452Z,6.7
2022-12-28T07:56:52.280Z,6.7
2022-12-28T08:01:46.106Z,6.7
2022-12-28T08:04:12.919Z,6.7
2022-12-28T08:06:39.730Z,6.7
2022-12-28T08:09:06.487Z,6.7
2022-12-28T08:11:33.417Z,6.7
2022-12-28T08:14:00.184Z,6.7
2022-12-28T08:16:27.111Z,6.7
2022-12-28T08:18:52.421Z,6.7
2022-12-28T08:21:19.279Z,6.7
2022-12-28T08:23:46.115Z,6.7
2022-12-28T08:26:13.000Z,6.7
2022-12-28T08:28:39.818Z,6.7
2022-12-28T08:31:06.643Z,6.7
2022-12-28T08:33:33.466Z,6.7
2022-12-28T08:36:00.370Z,6.7
2022-12-28T08:38:27.159Z,6.7
2022-12-28T08:40:53.995Z,6.7
2022-12-28T08:43:20.864Z,6.7
2022-12-28T08:45:47.688Z,6.7
2022-12-28T08:48:14.516Z,6.7
2022-12-28T08:50:39.950Z,6.7
2022-12-28T08:53:06.784Z,6.7
2022-12-28T08:55:33.615Z,6.7
2022-12-28T08:58:00.467Z,6.7
2022-12-28T09:00:27.300Z,6.7
2022-12-28T09:02:54.132Z,6.7
2022-12-28T09:05:20.983Z,6.7
2022-12-28T09:10:14.748Z,6.7
2022-12-28T09:12:41.512Z,6.7
2022-12-28T09:15:08.343Z,6.7
2022-12-28T09:17:35.177Z,6.7
2022-12-28T09:20:02.024Z,6.7
2022-12-28T09:22:27.447Z,6.7
2022-12-28T09:24:54.274Z,6.7
2022-12-28T09:27:21.132Z,6.7
2022-12-28T09:29:47.969Z,6.7
2022-12-28T09:32:14.794Z,6.7
2022-12-28T09:34:41.645Z,6.7
2022-12-28T09:37:08.480Z,6.7
2022-12-28T09:39:35.320Z,6.7
2022-12-28T09:42:02.183Z,6.8
2022-12-28T09:44:29.015Z,6.8
2022-12-28T09:46:55.850Z,6.8
2022-12-28T09:49:22.682Z,6.8
2022-12-28T09:51:49.537Z,6.8
2022-12-28T09:54:15.074Z,6.9
2022-12-28T09:56:41.797Z,6.9
2022-12-28T09:59:08.688Z,6.9
2022-12-28T10:01:35.460Z,6.9
2022-12-28T10:04:02.309Z,6.9
2022-12-28T10:06:29.173Z,6.9
2022-12-28T10:08:55.986Z,6.9
2022-12-28T10:11:22.833Z,7
2022-12-28T10:13:49.815Z,7
2022-12-28T10:16:16.497Z,7.1
2022-12-28T10:18:43.345Z,7.1
2022-12-28T10:21:10.167Z,7.1
2022-12-28T10:23:37.017Z,7.1
2022-12-28T10:26:02.458Z,7.1
2022-12-28T10:28:29.286Z,7.2
2022-12-28T10:30:56.117Z,7.2
2022-12-28T10:33:22.968Z,7.2
2022-12-28T10:35:50.038Z,7.2
2022-12-28T10:38:16.817Z,7.2
2022-12-28T10:40:43.659Z,7.2
2022-12-28T10:43:10.566Z,7.2
2022-12-28T10:45:37.339Z,7.2
2022-12-28T10:48:04.281Z,7.2
2022-12-28T10:50:30.995Z,7.2
2022-12-28T10:52:57.791Z,7.3
2022-12-28T10:55:24.622Z,7.3
2022-12-28T10:57:49.956Z,7.3
2022-12-28T11:00:16.775Z,7.3
2022-12-28T11:02:43.632Z,7.3
2022-12-28T11:05:10.463Z,7.3
2022-12-28T11:07:37.303Z,7.3
2022-12-28T11:10:04.156Z,7.3
2022-12-28T11:12:30.985Z,7.4
2022-12-28T11:14:57.819Z,7.4
2022-12-28T11:17:24.741Z,7.4
2022-12-28T11:19:51.547Z,7.4
2022-12-28T11:22:18.341Z,7.4
2022-12-28T11:24:45.210Z,7.4
2022-12-28T11:27:12.019Z,7.4
2022-12-28T11:29:38.863Z,7.4
2022-12-28T11:32:04.291Z,7.4
2022-12-28T11:34:31.143Z,7.4
2022-12-28T11:36:57.965Z,7.4
2022-12-28T11:39:24.808Z,7.4
2022-12-28T11:41:51.654Z,7.4
2022-12-28T11:44:18.511Z,7.4
2022-12-28T11:46:45.334Z,7.4
2022-12-28T11:49:12.170Z,7.5
2022-12-28T11:51:39.012Z,7.5
2022-12-28T11:54:05.863Z,7.6
2022-12-28T11:56:32.691Z,7.6
2022-12-28T11:58:59.530Z,7.6
2022-12-28T12:01:26.368Z,7.6
2022-12-28T12:03:53.217Z,7.7
2022-12-28T12:06:18.648Z,7.7
2022-12-28T12:08:45.464Z,7.7
2022-12-28T12:11:12.312Z,7.7
2022-12-28T12:13:39.140Z,7.7
2022-12-28T12:16:06.001Z,7.7
2022-12-28T12:18:32.835Z,7.7
2022-12-28T12:20:59.683Z,7.8
2022-12-28T12:23:26.523Z,7.8
2022-12-28T12:25:53.363Z,7.8
2022-12-28T12:28:20.181Z,7.8
2022-12-28T12:30:47.041Z,7.9
2022-12-28T12:33:13.864Z,7.9
2022-12-28T12:35:40.713Z,7.9
2022-12-28T12:38:07.520Z,7.9
2022-12-28T12:40:32.950Z,8
2022-12-28T12:42:59.775Z,8
2022-12-28T12:47:53.455Z,8
2022-12-28T12:50:20.286Z,8
2022-12-28T12:52:47.165Z,8
2022-12-28T12:55:13.986Z,8.1
2022-12-28T12:57:40.828Z,8.1
2022-12-28T13:00:07.664Z,8.1
2022-12-28T13:02:34.501Z,8.1
2022-12-28T13:05:01.349Z,8.1
2022-12-28T13:07:28.192Z,8.1
2022-12-28T13:09:55.011Z,8.1
2022-12-28T13:12:20.432Z,8.1
2022-12-28T13:14:47.291Z,8.1
2022-12-28T13:17:14.118Z,8
2022-12-28T13:19:40.954Z,8.1
2022-12-28T13:22:07.794Z,8
2022-12-28T13:24:34.659Z,8
2022-12-28T13:27:01.483Z,8
2022-12-28T13:29:28.313Z,8
2022-12-28T13:31:55.161Z,8
2022-12-28T13:34:22.060Z,8
2022-12-28T13:36:48.847Z,7.9
2022-12-28T13:39:15.679Z,7.9
2022-12-28T13:41:42.523Z,7.9
2022-12-28T13:44:07.977Z,7.9
2022-12-28T13:46:34.810Z,7.9
2022-12-28T13:49:01.633Z,7.9
2022-12-28T13:51:28.486Z,7.9
2022-12-28T13:53:55.327Z,7.9
2022-12-28T13:56:22.164Z,7.9
2022-12-28T13:58:49.006Z,7.9
2022-12-28T14:01:15.845Z,7.9
2022-12-28T14:03:42.681Z,7.9
2022-12-28T14:06:09.525Z,7.9
2022-12-28T14:08:36.374Z,7.9
2022-12-28T14:11:03.195Z,7.9
2022-12-28T14:13:30.034Z,7.9
2022-12-28T14:15:56.839Z,7.8
2022-12-28T14:18:22.259Z,7.8
2022-12-28T14:20:49.104Z,7.8
2022-12-28T14:23:15.940Z,7.8
2022-12-28T14:25:42.779Z,7.8
2022-12-28T14:28:09.616Z,7.8
2022-12-28T14:30:36.457Z,7.8
2022-12-28T14:33:03.292Z,7.8
2022-12-28T14:35:30.137Z,7.8
2022-12-28T14:37:56.989Z,7.7
2022-12-28T14:40:23.966Z,7.8
2022-12-28T14:42:50.846Z,7.8
2022-12-28T14:45:17.505Z,7.7
2022-12-28T14:47:44.341Z,7.7
2022-12-28T14:50:09.764Z,7.7
2022-12-28T14:52:36.658Z,7.7
2022-12-28T14:55:03.457Z,7.7
2022-12-28T14:57:30.282Z,7.7
2022-12-28T14:59:57.161Z,7.7
2022-12-28T15:02:24.109Z,7.7
2022-12-28T15:04:50.954Z,7.7
2022-12-28T15:07:17.694Z,7.7
2022-12-28T15:09:44.589Z,7.7
2022-12-28T15:12:11.338Z,7.7
2022-12-28T15:14:38.286Z,7.7
2022-12-28T15:17:04.999Z,7.7
2022-12-28T15:19:31.876Z,7.7
2022-12-28T15:21:58.697Z,7.7
2022-12-28T15:24:24.092Z,7.7
2022-12-28T15:26:50.934Z,7.7
2022-12-28T15:29:17.825Z,7.7
2022-12-28T15:31:44.628Z,7.7
2022-12-28T15:34:11.469Z,7.7
2022-12-28T15:36:38.307Z,7.7
2022-12-28T15:39:05.151Z,7.7
2022-12-28T15:41:31.964Z,7.7
2022-12-28T15:43:58.864Z,7.7
2022-12-28T15:46:25.655Z,7.7
2022-12-28T15:48:52.500Z,7.7
2022-12-28T15:51:19.347Z,7.7
2022-12-28T15:53:46.181Z,7.7
2022-12-28T15:56:11.598Z,7.7
2022-12-28T15:58:38.435Z,7.7
2022-12-28T16:01:05.278Z,7.7
2022-12-28T16:03:32.120Z,7.7
2022-12-28T16:05:58.967Z,7.7
2022-12-28T16:08:25.800Z,7.7
2022-12-28T16:10:52.633Z,7.7
2022-12-28T16:13:19.480Z,7.7
2022-12-28T16:15:46.325Z,7.7
2022-12-28T16:18:13.174Z,7.7
2022-12-28T16:20:40.006Z,7.7
2022-12-28T16:23:06.827Z,7.7
2022-12-28T16:25:33.669Z,7.7
2022-12-28T16:28:00.485Z,7.6
2022-12-28T16:30:25.895Z,7.7
2022-12-28T16:32:52.788Z,7.6
2022-12-28T16:35:19.587Z,7.6
2022-12-28T16:37:46.416Z,7.6
2022-12-28T16:40:13.273Z,7.6
2022-12-28T16:42:40.099Z,7.6
2022-12-28T16:45:06.933Z,7.6
2022-12-28T16:47:33.795Z,7.6
2022-12-28T16:50:00.614Z,7.6
2022-12-28T16:52:27.511Z,7.6
2022-12-28T16:54:54.306Z,7.6
2022-12-28T16:57:21.184Z,7.6
2022-12-28T16:59:47.992Z,7.6
2022-12-28T17:02:14.837Z,7.6
2022-12-28T17:04:40.238Z,7.6
2022-12-28T17:07:07.085Z,7.6
2022-12-28T17:09:33.926Z,7.7
2022-12-28T17:12:00.767Z,7.7
2022-12-28T17:14:27.604Z,7.7
2022-12-28T17:16:54.443Z,7.7
2022-12-28T17:19:21.684Z,7.8
2022-12-28T17:21:48.133Z,7.8
2022-12-28T17:24:14.993Z,7.8
2022-12-28T17:26:41.815Z,7.9
2022-12-28T17:29:08.650Z,7.9
2022-12-28T17:31:35.492Z,7.9
2022-12-28T17:34:02.322Z,7.9
2022-12-28T17:36:27.751Z,7.9
2022-12-28T17:38:54.583Z,7.9
2022-12-28T17:41:21.422Z,8
2022-12-28T17:43:48.272Z,8
2022-12-28T17:46:15.105Z,8
2022-12-28T17:48:41.958Z,8.1
2022-12-28T17:51:08.789Z,8.1
2022-12-28T17:53:35.649Z,8.2
2022-12-28T17:56:02.529Z,8.2
2022-12-28T17:58:29.307Z,8.2
2022-12-28T18:00:56.185Z,8.2
2022-12-28T18:03:22.991Z,8.3
2022-12-28T18:05:49.833Z,8.3
2022-12-28T18:08:15.252Z,8.4
2022-12-28T18:10:42.096Z,8.4
2022-12-28T18:13:08.923Z,8.5
2022-12-28T18:15:35.766Z,8.6
2022-12-28T18:18:02.605Z,8.6
2022-12-28T18:20:29.450Z,8.6
2022-12-28T18:22:56.350Z,8.7
2022-12-28T18:25:23.119Z,8.7
2022-12-28T18:27:49.967Z,8.7
2022-12-28T18:30:16.805Z,8.7
2022-12-28T18:32:43.648Z,8.7
2022-12-28T18:35:10.486Z,8.8
2022-12-28T18:37:37.331Z,8.8
2022-12-28T18:40:04.142Z,8.8
2022-12-28T18:42:29.545Z,8.9
2022-12-28T18:44:56.389Z,8.9
2022-12-28T18:47:23.237Z,8.9
2022-12-28T18:49:50.103Z,8.9
2022-12-28T18:52:16.915Z,8.9
2022-12-28T18:54:43.751Z,8.9
2022-12-28T18:57:10.611Z,9
2022-12-28T18:59:37.434Z,8.9
2022-12-28T19:02:04.287Z,8.9
2022-12-28T19:04:31.116Z,8.9
2022-12-28T19:06:57.962Z,8.9
2022-12-28T19:09:24.806Z,8.9
2022-12-28T19:11:51.643Z,8.9
2022-12-28T19:14:18.481Z,8.9
2022-12-28T19:16:45.291Z,8.8
2022-12-28T19:19:10.692Z,8.8
2022-12-28T19:21:37.553Z,8.8
2022-12-28T19:24:04.398Z,8.7
2022-12-28T19:26:31.221Z,8.7
2022-12-28T19:28:58.069Z,8.7
2022-12-28T19:31:24.904Z,8.7
2022-12-28T19:33:51.847Z,8.7
2022-12-28T19:36:18.586Z,8.7
2022-12-28T19:38:45.430Z,8.6
2022-12-28T19:41:12.264Z,8.6
2022-12-28T19:43:39.099Z,8.6
2022-12-28T19:46:05.948Z,8.6
2022-12-28T19:48:32.787Z,8.6
2022-12-28T19:50:58.213Z,8.5
2022-12-28T19:53:25.040Z,8.5
2022-12-28T19:55:51.878Z,8.5
2022-12-28T19:58:18.745Z,8.4
2022-12-28T20:00:45.565Z,8.4
2022-12-28T20:03:12.416Z,8.4
2022-12-28T20:05:39.285Z,8.4
2022-12-28T20:08:06.104Z,8.4
2022-12-28T20:10:32.945Z,8.4
2022-12-28T20:12:59.763Z,8.4
2022-12-28T20:15:26.608Z,8.3
2022-12-28T20:17:53.439Z,8.3
2022-12-28T20:20:20.274Z,8.3
2022-12-28T20:22:45.747Z,8.2
2022-12-28T20:25:12.540Z,8.2
2022-12-28T20:27:39.421Z,8.2
2022-12-28T20:30:06.246Z,8.2
2022-12-28T20:32:33.085Z,8.2
2022-12-28T20:34:59.902Z,8.2
2022-12-28T20:37:26.752Z,8.2
2022-12-28T20:39:53.584Z,8.1
2022-12-28T20:42:20.431Z,8.1
2022-12-28T20:44:47.265Z,8.1
2022-12-28T20:47:14.112Z,8.1
2022-12-28T20:49:40.953Z,8.1
2022-12-28T20:52:07.803Z,8.1
2022-12-28T20:54:33.204Z,8.1
2022-12-28T20:57:00.090Z,8.1
2022-12-28T20:59:26.893Z,8.1
2022-12-28T21:01:53.730Z,8
2022-12-28T21:04:20.564Z,8
2022-12-28T21:06:47.403Z,8
2022-12-28T21:09:14.232Z,8
2022-12-28T21:11:41.094Z,7.9
2022-12-28T21:14:07.982Z,7.9
2022-12-28T21:16:34.809Z,7.9
2022-12-28T21:19:01.679Z,7.9
2022-12-28T21:21:28.437Z,7.9
2022-12-28T21:23:55.277Z,7.9
2022-12-28T21:26:20.714Z,7.9
2022-12-28T21:28:47.551Z,7.9
2022-12-28T21:31:14.381Z,7.9
2022-12-28T21:33:41.234Z,7.9
2022-12-28T21:36:08.085Z,7.9
2022-12-28T21:38:34.904Z,7.9
2022-12-28T21:41:01.750Z,7.8
2022-12-28T21:43:28.589Z,7.8
2022-12-28T21:45:55.444Z,7.8
2022-12-28T21:48:22.272Z,7.8
2022-12-28T21:50:49.110Z,7.8
2022-12-28T21:53:15.995Z,7.8
2022-12-28T21:55:41.389Z,7.8
2022-12-28T21:58:08.231Z,7.7
2022-12-28T22:00:35.070Z,7.7
2022-12-28T22:03:01.923Z,7.7
2022-12-28T22:05:28.768Z,7.7
2022-12-28T22:07:55.605Z,7.7
2022-12-28T22:10:22.455Z,7.7
2022-12-28T22:12:49.354Z,7.7
2022-12-28T22:15:16.111Z,7.7
2022-12-28T22:17:42.958Z,7.7
2022-12-28T22:20:09.789Z,7.7
2022-12-28T22:22:36.643Z,7.7
2022-12-28T22:25:03.523Z,7.7
2022-12-28T22:27:28.895Z,7.7
2022-12-28T22:29:55.818Z,7.7
2022-12-28T22:32:22.583Z,7.7
2022-12-28T22:34:49.411Z,7.7
2022-12-28T22:37:16.262Z,7.6
2022-12-28T22:39:43.089Z,7.6
2022-12-28T22:42:09.934Z,7.6
2022-12-28T22:44:36.813Z,7.6
2022-12-28T22:47:03.615Z,7.6
2022-12-28T22:49:30.462Z,7.6
2022-12-28T22:51:57.314Z,7.6
2022-12-28T22:54:24.139Z,7.6
2022-12-28T22:56:50.983Z,7.6
2022-12-28T22:59:16.451Z,7.6
2022-12-28T23:01:43.231Z,7.6
2022-12-28T23:04:10.086Z,7.6
2022-12-28T23:06:36.910Z,7.6
2022-12-28T23:09:03.750Z,7.6
2022-12-28T23:11:30.597Z,7.6
2022-12-28T23:13:57.441Z,7.6
2022-12-28T23:16:24.289Z,7.6
2022-12-28T23:18:51.124Z,7.6
2022-12-28T23:21:17.963Z,7.6
2022-12-28T23:23:44.803Z,7.6
2022-12-28T23:26:11.631Z,7.6
2022-12-28T23:28:38.508Z,7.5
2022-12-28T23:31:05.320Z,7.6
2022-12-28T23:33:32.126Z,7.6
2022-12-28T23:35:58.933Z,7.5
2022-12-28T23:38:25.789Z,7.5
2022-12-28T23:40:52.584Z,7.5
2022-12-28T23:43:19.433Z,7.5
2022-12-28T23:45:46.269Z,7.5
2022-12-28T23:48:13.072Z,7.5
2022-12-28T23:50:38.495Z,7.5
2022-12-28T23:53:05.335Z,7.5
2022-12-28T23:55:32.171Z,7.5
2022-12-28T23:57:59.008Z,7.5
